sensor_id;sensor_type;location;lat;lon;timestamp;P1;durP1;ratioP1;P2;durP2;ratioP2
2944;SDS011;1482;51.398;7.128;2024-01-06T00:01:28;20.97;;;15.17;;
2944;SDS011;1482;51.398;7.128;2024-01-06T00:03:53;24.33;;;16.67;;
2944;SDS011;1482;51.398;7.128;2024-01-06T00:06:20;18.67;;;13.57;;
2944;SDS011;1482;51.398;7.128;2024-01-06T00:08:45;19.37;;;14.43;;
2944;SDS011;1482;51.398;7.128;2024-01-06T00:11:11;18.17;;;13.77;;
2944;SDS011;1482;51.398;7.128;2024-01-06T00:13:37;24.13;;;15.23;;
2944;SDS011;1482;51.398;7.128;2024-01-06T00:16:03;19.30;;;14.40;;
2944;SDS011;1482;51.398;7.128;2024-01-06T00:18:29;19.80;;;13.87;;
2944;SDS011;1482;51.398;7.128;2024-01-06T00:20:54;19.37;;;12.67;;
2944;SDS011;1482;51.398;7.128;2024-01-06T00:23:20;20.37;;;13.60;;
2944;SDS011;1482;51.398;7.128;2024-01-06T00:25:45;19.73;;;12.40;;
2944;SDS011;1482;51.398;7.128;2024-01-06T00:28:11;16.27;;;12.67;;
2944;SDS011;1482;51.398;7.128;2024-01-06T00:30:36;16.13;;;12.10;;
2944;SDS011;1482;51.398;7.128;2024-01-06T00:33:02;16.87;;;12.47;;
2944;SDS011;1482;51.398;7.128;2024-01-06T00:35:27;15.23;;;12.33;;
2944;SDS011;1482;51.398;7.128;2024-01-06T00:37:53;18.50;;;11.83;;
2944;SDS011;1482;51.398;7.128;2024-01-06T00:40:20;19.20;;;13.57;;
2944;SDS011;1482;51.398;7.128;2024-01-06T00:42:45;18.47;;;13.40;;
2944;SDS011;1482;51.398;7.128;2024-01-06T00:45:11;22.00;;;12.97;;
2944;SDS011;1482;51.398;7.128;2024-01-06T00:47:36;15.27;;;11.23;;
2944;SDS011;1482;51.398;7.128;2024-01-06T00:50:02;18.47;;;12.90;;
2944;SDS011;1482;51.398;7.128;2024-01-06T00:52:27;17.27;;;13.33;;
2944;SDS011;1482;51.398;7.128;2024-01-06T00:54:53;21.50;;;13.90;;
2944;SDS011;1482;51.398;7.128;2024-01-06T00:57:19;24.47;;;16.33;;
2944;SDS011;1482;51.398;7.128;2024-01-06T00:59:49;17.97;;;13.13;;
2944;SDS011;1482;51.398;7.128;2024-01-06T01:02:14;21.67;;;14.73;;
2944;SDS011;1482;51.398;7.128;2024-01-06T01:04:40;19.37;;;13.47;;
2944;SDS011;1482;51.398;7.128;2024-01-06T01:07:05;19.20;;;13.87;;
2944;SDS011;1482;51.398;7.128;2024-01-06T01:09:31;15.10;;;11.57;;
2944;SDS011;1482;51.398;7.128;2024-01-06T01:11:56;24.43;;;15.13;;
2944;SDS011;1482;51.398;7.128;2024-01-06T01:14:22;17.97;;;12.90;;
2944;SDS011;1482;51.398;7.128;2024-01-06T01:16:47;21.17;;;12.63;;
2944;SDS011;1482;51.398;7.128;2024-01-06T01:19:13;16.33;;;12.73;;
2944;SDS011;1482;51.398;7.128;2024-01-06T01:21:39;21.27;;;14.07;;
2944;SDS011;1482;51.398;7.128;2024-01-06T01:24:04;16.77;;;12.60;;
2944;SDS011;1482;51.398;7.128;2024-01-06T01:26:30;22.13;;;15.57;;
2944;SDS011;1482;51.398;7.128;2024-01-06T01:28:55;15.47;;;12.63;;
2944;SDS011;1482;51.398;7.128;2024-01-06T01:31:21;22.27;;;15.20;;
2944;SDS011;1482;51.398;7.128;2024-01-06T01:33:47;24.60;;;12.97;;
2944;SDS011;1482;51.398;7.128;2024-01-06T01:36:12;22.10;;;13.13;;
2944;SDS011;1482;51.398;7.128;2024-01-06T01:38:38;24.83;;;16.40;;
2944;SDS011;1482;51.398;7.128;2024-01-06T01:41:03;22.30;;;14.67;;
2944;SDS011;1482;51.398;7.128;2024-01-06T01:43:29;22.33;;;14.27;;
2944;SDS011;1482;51.398;7.128;2024-01-06T01:45:55;23.70;;;15.13;;
2944;SDS011;1482;51.398;7.128;2024-01-06T01:48:21;21.90;;;15.43;;
2944;SDS011;1482;51.398;7.128;2024-01-06T01:50:48;20.63;;;14.83;;
2944;SDS011;1482;51.398;7.128;2024-01-06T01:53:14;21.20;;;14.40;;
2944;SDS011;1482;51.398;7.128;2024-01-06T01:55:42;25.90;;;15.67;;
2944;SDS011;1482;51.398;7.128;2024-01-06T01:58:10;22.70;;;13.67;;
2944;SDS011;1482;51.398;7.128;2024-01-06T02:00:37;32.57;;;14.50;;
2944;SDS011;1482;51.398;7.128;2024-01-06T02:03:03;20.93;;;13.50;;
2944;SDS011;1482;51.398;7.128;2024-01-06T02:05:30;24.00;;;17.80;;
2944;SDS011;1482;51.398;7.128;2024-01-06T02:07:56;26.73;;;15.37;;
2944;SDS011;1482;51.398;7.128;2024-01-06T02:10:21;20.67;;;14.00;;
2944;SDS011;1482;51.398;7.128;2024-01-06T02:12:48;21.73;;;14.60;;
2944;SDS011;1482;51.398;7.128;2024-01-06T02:15:14;24.37;;;15.10;;
2944;SDS011;1482;51.398;7.128;2024-01-06T02:17:40;19.83;;;15.20;;
2944;SDS011;1482;51.398;7.128;2024-01-06T02:20:06;26.87;;;15.50;;
2944;SDS011;1482;51.398;7.128;2024-01-06T02:22:33;24.47;;;17.50;;
2944;SDS011;1482;51.398;7.128;2024-01-06T02:25:00;28.03;;;16.20;;
2944;SDS011;1482;51.398;7.128;2024-01-06T02:27:27;25.50;;;16.00;;
2944;SDS011;1482;51.398;7.128;2024-01-06T02:29:52;28.07;;;18.00;;
2944;SDS011;1482;51.398;7.128;2024-01-06T02:32:18;25.10;;;17.23;;
2944;SDS011;1482;51.398;7.128;2024-01-06T02:34:43;27.13;;;17.87;;
2944;SDS011;1482;51.398;7.128;2024-01-06T02:37:09;39.33;;;20.37;;
2944;SDS011;1482;51.398;7.128;2024-01-06T02:39:34;24.53;;;15.63;;
2944;SDS011;1482;51.398;7.128;2024-01-06T02:42:00;27.50;;;17.87;;
2944;SDS011;1482;51.398;7.128;2024-01-06T02:44:25;26.87;;;18.37;;
2944;SDS011;1482;51.398;7.128;2024-01-06T02:46:51;27.17;;;18.50;;
2944;SDS011;1482;51.398;7.128;2024-01-06T02:49:17;28.30;;;17.07;;
2944;SDS011;1482;51.398;7.128;2024-01-06T02:51:42;25.00;;;17.50;;
2944;SDS011;1482;51.398;7.128;2024-01-06T02:54:08;26.97;;;17.57;;
2944;SDS011;1482;51.398;7.128;2024-01-06T02:56:33;29.17;;;18.10;;
2944;SDS011;1482;51.398;7.128;2024-01-06T02:58:59;27.77;;;17.70;;
2944;SDS011;1482;51.398;7.128;2024-01-06T03:01:24;35.47;;;19.23;;
2944;SDS011;1482;51.398;7.128;2024-01-06T03:03:50;35.07;;;20.23;;
2944;SDS011;1482;51.398;7.128;2024-01-06T03:06:15;28.60;;;17.93;;
2944;SDS011;1482;51.398;7.128;2024-01-06T03:08:41;28.53;;;18.80;;
2944;SDS011;1482;51.398;7.128;2024-01-06T03:11:06;34.37;;;18.57;;
2944;SDS011;1482;51.398;7.128;2024-01-06T03:13:32;29.33;;;18.57;;
2944;SDS011;1482;51.398;7.128;2024-01-06T03:16:00;39.43;;;21.37;;
2944;SDS011;1482;51.398;7.128;2024-01-06T03:18:28;37.53;;;19.97;;
2944;SDS011;1482;51.398;7.128;2024-01-06T03:20:53;35.97;;;20.10;;
2944;SDS011;1482;51.398;7.128;2024-01-06T03:23:19;31.43;;;19.60;;
2944;SDS011;1482;51.398;7.128;2024-01-06T03:25:44;32.20;;;20.13;;
2944;SDS011;1482;51.398;7.128;2024-01-06T03:28:10;38.20;;;21.60;;
2944;SDS011;1482;51.398;7.128;2024-01-06T03:30:35;35.43;;;22.07;;
2944;SDS011;1482;51.398;7.128;2024-01-06T03:33:01;33.33;;;19.57;;
2944;SDS011;1482;51.398;7.128;2024-01-06T03:35:26;40.57;;;22.90;;
2944;SDS011;1482;51.398;7.128;2024-01-06T03:37:52;35.67;;;21.70;;
2944;SDS011;1482;51.398;7.128;2024-01-06T03:40:18;33.73;;;21.13;;
2944;SDS011;1482;51.398;7.128;2024-01-06T03:42:43;35.63;;;20.97;;
2944;SDS011;1482;51.398;7.128;2024-01-06T03:45:09;36.50;;;20.30;;
2944;SDS011;1482;51.398;7.128;2024-01-06T03:47:34;36.90;;;23.80;;
2944;SDS011;1482;51.398;7.128;2024-01-06T03:50:00;38.37;;;22.80;;
2944;SDS011;1482;51.398;7.128;2024-01-06T03:52:25;35.07;;;21.07;;
2944;SDS011;1482;51.398;7.128;2024-01-06T03:54:51;31.10;;;18.33;;
2944;SDS011;1482;51.398;7.128;2024-01-06T03:57:16;34.10;;;19.73;;
2944;SDS011;1482;51.398;7.128;2024-01-06T03:59:42;35.77;;;21.47;;
2944;SDS011;1482;51.398;7.128;2024-01-06T04:02:07;28.23;;;16.67;;
2944;SDS011;1482;51.398;7.128;2024-01-06T04:04:33;29.70;;;17.00;;
2944;SDS011;1482;51.398;7.128;2024-01-06T04:06:59;24.83;;;13.10;;
2944;SDS011;1482;51.398;7.128;2024-01-06T04:09:26;24.27;;;13.67;;
2944;SDS011;1482;51.398;7.128;2024-01-06T04:11:52;21.43;;;12.30;;
2944;SDS011;1482;51.398;7.128;2024-01-06T04:14:17;22.80;;;14.03;;
2944;SDS011;1482;51.398;7.128;2024-01-06T04:16:43;23.60;;;12.40;;
2944;SDS011;1482;51.398;7.128;2024-01-06T04:19:08;20.70;;;13.23;;
2944;SDS011;1482;51.398;7.128;2024-01-06T04:21:36;21.40;;;12.37;;
2944;SDS011;1482;51.398;7.128;2024-01-06T04:24:01;17.00;;;11.03;;
2944;SDS011;1482;51.398;7.128;2024-01-06T04:26:27;21.23;;;11.27;;
2944;SDS011;1482;51.398;7.128;2024-01-06T04:28:52;19.83;;;12.43;;
2944;SDS011;1482;51.398;7.128;2024-01-06T04:31:18;16.50;;;10.87;;
2944;SDS011;1482;51.398;7.128;2024-01-06T04:33:43;19.60;;;11.77;;
2944;SDS011;1482;51.398;7.128;2024-01-06T04:36:09;18.90;;;12.20;;
2944;SDS011;1482;51.398;7.128;2024-01-06T04:38:34;16.87;;;10.53;;
2944;SDS011;1482;51.398;7.128;2024-01-06T04:41:00;19.60;;;11.90;;
2944;SDS011;1482;51.398;7.128;2024-01-06T04:43:25;17.23;;;10.80;;
2944;SDS011;1482;51.398;7.128;2024-01-06T04:45:51;25.07;;;12.53;;
2944;SDS011;1482;51.398;7.128;2024-01-06T04:48:16;19.90;;;10.37;;
2944;SDS011;1482;51.398;7.128;2024-01-06T04:50:42;21.97;;;10.70;;
2944;SDS011;1482;51.398;7.128;2024-01-06T04:53:08;15.37;;;9.77;;
2944;SDS011;1482;51.398;7.128;2024-01-06T04:55:33;16.10;;;10.10;;
2944;SDS011;1482;51.398;7.128;2024-01-06T04:57:59;19.93;;;11.70;;
2944;SDS011;1482;51.398;7.128;2024-01-06T05:00:24;19.17;;;11.00;;
2944;SDS011;1482;51.398;7.128;2024-01-06T05:02:50;16.00;;;9.80;;
2944;SDS011;1482;51.398;7.128;2024-01-06T05:05:16;18.60;;;10.50;;
2944;SDS011;1482;51.398;7.128;2024-01-06T05:07:41;17.70;;;9.23;;
2944;SDS011;1482;51.398;7.128;2024-01-06T05:10:07;18.20;;;11.80;;
2944;SDS011;1482;51.398;7.128;2024-01-06T05:12:33;15.97;;;9.17;;
2944;SDS011;1482;51.398;7.128;2024-01-06T05:14:58;19.23;;;10.03;;
2944;SDS011;1482;51.398;7.128;2024-01-06T05:17:24;16.63;;;10.10;;
2944;SDS011;1482;51.398;7.128;2024-01-06T05:19:49;17.53;;;8.70;;
2944;SDS011;1482;51.398;7.128;2024-01-06T05:22:15;15.90;;;9.20;;
2944;SDS011;1482;51.398;7.128;2024-01-06T05:24:40;18.20;;;10.77;;
2944;SDS011;1482;51.398;7.128;2024-01-06T05:27:06;17.00;;;9.30;;
2944;SDS011;1482;51.398;7.128;2024-01-06T05:29:31;18.40;;;10.97;;
2944;SDS011;1482;51.398;7.128;2024-01-06T05:31:57;18.83;;;10.27;;
2944;SDS011;1482;51.398;7.128;2024-01-06T05:34:23;20.70;;;12.07;;
2944;SDS011;1482;51.398;7.128;2024-01-06T05:36:48;16.43;;;10.50;;
2944;SDS011;1482;51.398;7.128;2024-01-06T05:39:14;15.73;;;9.80;;
2944;SDS011;1482;51.398;7.128;2024-01-06T05:41:39;19.97;;;10.90;;
2944;SDS011;1482;51.398;7.128;2024-01-06T05:44:05;17.87;;;11.03;;
2944;SDS011;1482;51.398;7.128;2024-01-06T05:46:31;16.43;;;10.00;;
2944;SDS011;1482;51.398;7.128;2024-01-06T05:48:57;15.23;;;8.87;;
2944;SDS011;1482;51.398;7.128;2024-01-06T05:51:23;15.33;;;9.67;;
2944;SDS011;1482;51.398;7.128;2024-01-06T05:53:48;17.83;;;9.00;;
2944;SDS011;1482;51.398;7.128;2024-01-06T05:56:24;16.07;;;9.97;;
2944;SDS011;1482;51.398;7.128;2024-01-06T05:58:50;17.97;;;9.87;;
2944;SDS011;1482;51.398;7.128;2024-01-06T06:01:16;14.50;;;8.00;;
2944;SDS011;1482;51.398;7.128;2024-01-06T06:03:42;13.80;;;7.90;;
2944;SDS011;1482;51.398;7.128;2024-01-06T06:06:08;20.97;;;10.03;;
2944;SDS011;1482;51.398;7.128;2024-01-06T06:08:34;18.47;;;10.37;;
2944;SDS011;1482;51.398;7.128;2024-01-06T06:10:59;18.87;;;10.97;;
2944;SDS011;1482;51.398;7.128;2024-01-06T06:13:30;15.83;;;9.03;;
2944;SDS011;1482;51.398;7.128;2024-01-06T06:15:55;13.33;;;8.60;;
2944;SDS011;1482;51.398;7.128;2024-01-06T06:18:21;15.43;;;9.60;;
2944;SDS011;1482;51.398;7.128;2024-01-06T06:20:47;15.00;;;8.30;;
2944;SDS011;1482;51.398;7.128;2024-01-06T06:23:12;15.53;;;8.03;;
2944;SDS011;1482;51.398;7.128;2024-01-06T06:25:38;14.30;;;8.50;;
2944;SDS011;1482;51.398;7.128;2024-01-06T06:28:04;16.97;;;8.17;;
2944;SDS011;1482;51.398;7.128;2024-01-06T06:30:30;10.37;;;7.63;;
2944;SDS011;1482;51.398;7.128;2024-01-06T06:32:55;14.23;;;9.70;;
2944;SDS011;1482;51.398;7.128;2024-01-06T06:35:22;15.83;;;9.27;;
2944;SDS011;1482;51.398;7.128;2024-01-06T06:37:49;14.30;;;8.40;;
2944;SDS011;1482;51.398;7.128;2024-01-06T06:40:14;12.97;;;7.60;;
2944;SDS011;1482;51.398;7.128;2024-01-06T06:42:40;13.03;;;8.20;;
2944;SDS011;1482;51.398;7.128;2024-01-06T06:45:05;15.40;;;9.60;;
2944;SDS011;1482;51.398;7.128;2024-01-06T06:47:31;15.00;;;9.93;;
2944;SDS011;1482;51.398;7.128;2024-01-06T06:49:57;13.90;;;7.80;;
2944;SDS011;1482;51.398;7.128;2024-01-06T06:52:22;13.20;;;8.40;;
2944;SDS011;1482;51.398;7.128;2024-01-06T06:54:48;13.53;;;8.27;;
2944;SDS011;1482;51.398;7.128;2024-01-06T06:57:14;18.40;;;8.53;;
2944;SDS011;1482;51.398;7.128;2024-01-06T06:59:40;13.30;;;8.93;;
2944;SDS011;1482;51.398;7.128;2024-01-06T07:02:05;17.30;;;8.90;;
2944;SDS011;1482;51.398;7.128;2024-01-06T07:04:31;19.53;;;9.37;;
2944;SDS011;1482;51.398;7.128;2024-01-06T07:06:56;14.90;;;9.50;;
2944;SDS011;1482;51.398;7.128;2024-01-06T07:09:22;14.00;;;8.27;;
2944;SDS011;1482;51.398;7.128;2024-01-06T07:11:50;13.60;;;8.63;;
2944;SDS011;1482;51.398;7.128;2024-01-06T07:14:16;16.00;;;8.43;;
2944;SDS011;1482;51.398;7.128;2024-01-06T07:16:42;16.27;;;9.93;;
2944;SDS011;1482;51.398;7.128;2024-01-06T07:19:07;19.50;;;11.87;;
2944;SDS011;1482;51.398;7.128;2024-01-06T07:21:33;21.90;;;13.30;;
2944;SDS011;1482;51.398;7.128;2024-01-06T07:23:58;23.90;;;15.80;;
2944;SDS011;1482;51.398;7.128;2024-01-06T07:26:26;24.47;;;17.47;;
2944;SDS011;1482;51.398;7.128;2024-01-06T07:28:51;25.20;;;15.23;;
2944;SDS011;1482;51.398;7.128;2024-01-06T07:31:17;28.83;;;16.17;;
2944;SDS011;1482;51.398;7.128;2024-01-06T07:33:42;26.33;;;16.23;;
2944;SDS011;1482;51.398;7.128;2024-01-06T07:36:08;27.97;;;17.93;;
2944;SDS011;1482;51.398;7.128;2024-01-06T07:38:34;27.40;;;16.03;;
2944;SDS011;1482;51.398;7.128;2024-01-06T07:40:59;29.87;;;17.03;;
2944;SDS011;1482;51.398;7.128;2024-01-06T07:43:25;24.90;;;16.40;;
2944;SDS011;1482;51.398;7.128;2024-01-06T07:45:50;25.10;;;16.27;;
2944;SDS011;1482;51.398;7.128;2024-01-06T07:48:16;34.40;;;16.20;;
2944;SDS011;1482;51.398;7.128;2024-01-06T07:50:41;24.07;;;15.90;;
2944;SDS011;1482;51.398;7.128;2024-01-06T07:53:07;24.47;;;15.47;;
2944;SDS011;1482;51.398;7.128;2024-01-06T07:55:33;27.03;;;16.43;;
2944;SDS011;1482;51.398;7.128;2024-01-06T07:57:58;26.10;;;15.60;;
2944;SDS011;1482;51.398;7.128;2024-01-06T08:00:24;27.37;;;16.27;;
2944;SDS011;1482;51.398;7.128;2024-01-06T08:02:49;27.47;;;16.30;;
2944;SDS011;1482;51.398;7.128;2024-01-06T08:05:15;29.27;;;15.70;;
2944;SDS011;1482;51.398;7.128;2024-01-06T08:07:40;29.37;;;16.53;;
2944;SDS011;1482;51.398;7.128;2024-01-06T08:10:06;31.63;;;16.67;;
2944;SDS011;1482;51.398;7.128;2024-01-06T08:12:33;29.17;;;15.83;;
2944;SDS011;1482;51.398;7.128;2024-01-06T08:14:59;36.03;;;17.43;;
2944;SDS011;1482;51.398;7.128;2024-01-06T08:17:25;31.60;;;16.47;;
2944;SDS011;1482;51.398;7.128;2024-01-06T08:19:50;33.67;;;17.77;;
2944;SDS011;1482;51.398;7.128;2024-01-06T08:22:16;38.40;;;18.53;;
2944;SDS011;1482;51.398;7.128;2024-01-06T08:24:41;28.03;;;16.40;;
2944;SDS011;1482;51.398;7.128;2024-01-06T08:27:07;28.33;;;15.87;;
2944;SDS011;1482;51.398;7.128;2024-01-06T08:29:32;32.67;;;17.50;;
2944;SDS011;1482;51.398;7.128;2024-01-06T08:31:59;29.77;;;15.47;;
2944;SDS011;1482;51.398;7.128;2024-01-06T08:34:25;33.97;;;16.13;;
2944;SDS011;1482;51.398;7.128;2024-01-06T08:36:50;27.73;;;14.47;;
2944;SDS011;1482;51.398;7.128;2024-01-06T08:39:16;26.57;;;14.50;;
2944;SDS011;1482;51.398;7.128;2024-01-06T08:41:41;26.00;;;14.67;;
2944;SDS011;1482;51.398;7.128;2024-01-06T08:44:07;27.27;;;15.17;;
2944;SDS011;1482;51.398;7.128;2024-01-06T08:46:32;31.30;;;16.27;;
2944;SDS011;1482;51.398;7.128;2024-01-06T08:48:58;33.70;;;14.60;;
2944;SDS011;1482;51.398;7.128;2024-01-06T08:51:25;30.80;;;14.70;;
2944;SDS011;1482;51.398;7.128;2024-01-06T08:53:51;29.23;;;14.47;;
2944;SDS011;1482;51.398;7.128;2024-01-06T08:56:17;27.60;;;14.77;;
2944;SDS011;1482;51.398;7.128;2024-01-06T08:58:42;26.97;;;14.70;;
2944;SDS011;1482;51.398;7.128;2024-01-06T09:01:08;25.13;;;13.47;;
2944;SDS011;1482;51.398;7.128;2024-01-06T09:03:34;27.27;;;14.17;;
2944;SDS011;1482;51.398;7.128;2024-01-06T09:05:59;34.00;;;16.00;;
2944;SDS011;1482;51.398;7.128;2024-01-06T09:08:25;29.17;;;15.70;;
2944;SDS011;1482;51.398;7.128;2024-01-06T09:10:51;33.47;;;14.10;;
2944;SDS011;1482;51.398;7.128;2024-01-06T09:13:17;31.37;;;14.50;;
2944;SDS011;1482;51.398;7.128;2024-01-06T09:15:43;28.70;;;14.30;;
2944;SDS011;1482;51.398;7.128;2024-01-06T09:18:08;32.13;;;13.67;;
2944;SDS011;1482;51.398;7.128;2024-01-06T09:20:34;25.03;;;13.00;;
2944;SDS011;1482;51.398;7.128;2024-01-06T09:23:00;23.60;;;13.33;;
2944;SDS011;1482;51.398;7.128;2024-01-06T09:25:25;24.50;;;12.30;;
2944;SDS011;1482;51.398;7.128;2024-01-06T09:27:51;24.87;;;12.83;;
2944;SDS011;1482;51.398;7.128;2024-01-06T09:30:18;22.37;;;12.10;;
2944;SDS011;1482;51.398;7.128;2024-01-06T09:32:43;22.60;;;12.03;;
2944;SDS011;1482;51.398;7.128;2024-01-06T09:35:09;22.87;;;12.93;;
2944;SDS011;1482;51.398;7.128;2024-01-06T09:37:35;23.80;;;11.70;;
2944;SDS011;1482;51.398;7.128;2024-01-06T09:40:00;23.20;;;12.10;;
2944;SDS011;1482;51.398;7.128;2024-01-06T09:42:26;17.07;;;11.73;;
2944;SDS011;1482;51.398;7.128;2024-01-06T09:44:51;27.63;;;13.00;;
2944;SDS011;1482;51.398;7.128;2024-01-06T09:47:17;22.00;;;12.27;;
2944;SDS011;1482;51.398;7.128;2024-01-06T09:49:45;29.77;;;14.20;;
2944;SDS011;1482;51.398;7.128;2024-01-06T09:52:14;23.40;;;12.23;;
2944;SDS011;1482;51.398;7.128;2024-01-06T09:54:44;24.87;;;13.23;;
2944;SDS011;1482;51.398;7.128;2024-01-06T09:57:15;24.40;;;12.87;;
2944;SDS011;1482;51.398;7.128;2024-01-06T09:59:42;26.50;;;15.87;;
2944;SDS011;1482;51.398;7.128;2024-01-06T10:02:09;26.87;;;15.17;;
2944;SDS011;1482;51.398;7.128;2024-01-06T10:04:38;28.37;;;16.00;;
2944;SDS011;1482;51.398;7.128;2024-01-06T10:07:04;30.40;;;16.77;;
2944;SDS011;1482;51.398;7.128;2024-01-06T10:09:30;33.97;;;16.80;;
2944;SDS011;1482;51.398;7.128;2024-01-06T10:11:56;30.23;;;18.87;;
2944;SDS011;1482;51.398;7.128;2024-01-06T10:14:23;32.73;;;17.17;;
2944;SDS011;1482;51.398;7.128;2024-01-06T10:16:49;32.27;;;16.73;;
2944;SDS011;1482;51.398;7.128;2024-01-06T10:19:16;35.93;;;17.77;;
2944;SDS011;1482;51.398;7.128;2024-01-06T10:21:41;34.50;;;17.13;;
2944;SDS011;1482;51.398;7.128;2024-01-06T10:24:08;31.33;;;15.53;;
2944;SDS011;1482;51.398;7.128;2024-01-06T10:26:34;27.57;;;14.90;;
2944;SDS011;1482;51.398;7.128;2024-01-06T10:29:00;24.00;;;14.37;;
2944;SDS011;1482;51.398;7.128;2024-01-06T10:31:26;26.37;;;15.13;;
2944;SDS011;1482;51.398;7.128;2024-01-06T10:33:53;26.17;;;16.73;;
2944;SDS011;1482;51.398;7.128;2024-01-06T10:36:19;27.00;;;16.33;;
2944;SDS011;1482;51.398;7.128;2024-01-06T10:38:47;25.53;;;13.50;;
2944;SDS011;1482;51.398;7.128;2024-01-06T10:41:13;23.90;;;14.97;;
2944;SDS011;1482;51.398;7.128;2024-01-06T10:43:41;31.47;;;14.60;;
2944;SDS011;1482;51.398;7.128;2024-01-06T10:46:08;21.67;;;13.93;;
2944;SDS011;1482;51.398;7.128;2024-01-06T10:48:39;19.30;;;11.93;;
2944;SDS011;1482;51.398;7.128;2024-01-06T10:51:08;23.67;;;14.33;;
2944;SDS011;1482;51.398;7.128;2024-01-06T10:53:34;22.47;;;13.77;;
2944;SDS011;1482;51.398;7.128;2024-01-06T10:56:04;27.17;;;14.30;;
2944;SDS011;1482;51.398;7.128;2024-01-06T10:58:34;20.07;;;12.80;;
2944;SDS011;1482;51.398;7.128;2024-01-06T11:01:07;24.10;;;13.50;;
2944;SDS011;1482;51.398;7.128;2024-01-06T11:03:33;30.80;;;14.83;;
2944;SDS011;1482;51.398;7.128;2024-01-06T11:06:05;25.93;;;15.30;;
2944;SDS011;1482;51.398;7.128;2024-01-06T11:08:33;24.70;;;14.53;;
2944;SDS011;1482;51.398;7.128;2024-01-06T11:11:14;20.70;;;13.57;;
2944;SDS011;1482;51.398;7.128;2024-01-06T11:13:46;19.33;;;11.57;;
2944;SDS011;1482;51.398;7.128;2024-01-06T11:16:34;20.57;;;10.53;;
2944;SDS011;1482;51.398;7.128;2024-01-06T11:18:59;16.93;;;10.00;;
2944;SDS011;1482;51.398;7.128;2024-01-06T11:21:25;21.10;;;11.17;;
2944;SDS011;1482;51.398;7.128;2024-01-06T11:24:04;21.50;;;11.90;;
2944;SDS011;1482;51.398;7.128;2024-01-06T11:26:43;25.63;;;12.67;;
2944;SDS011;1482;51.398;7.128;2024-01-06T11:29:09;19.10;;;11.97;;
2944;SDS011;1482;51.398;7.128;2024-01-06T11:31:36;17.93;;;11.00;;
2944;SDS011;1482;51.398;7.128;2024-01-06T11:34:12;17.70;;;8.43;;
2944;SDS011;1482;51.398;7.128;2024-01-06T11:36:40;16.93;;;9.47;;
2944;SDS011;1482;51.398;7.128;2024-01-06T11:39:05;19.03;;;10.43;;
2944;SDS011;1482;51.398;7.128;2024-01-06T11:41:52;21.30;;;10.53;;
2944;SDS011;1482;51.398;7.128;2024-01-06T11:44:21;21.93;;;11.87;;
2944;SDS011;1482;51.398;7.128;2024-01-06T11:46:47;15.70;;;10.60;;
2944;SDS011;1482;51.398;7.128;2024-01-06T11:49:15;25.33;;;12.30;;
2944;SDS011;1482;51.398;7.128;2024-01-06T11:51:41;19.40;;;11.27;;
2944;SDS011;1482;51.398;7.128;2024-01-06T11:54:06;14.30;;;9.57;;
2944;SDS011;1482;51.398;7.128;2024-01-06T11:56:34;18.53;;;9.87;;
2944;SDS011;1482;51.398;7.128;2024-01-06T11:59:00;16.70;;;10.93;;
2944;SDS011;1482;51.398;7.128;2024-01-06T12:01:25;17.17;;;10.00;;
2944;SDS011;1482;51.398;7.128;2024-01-06T12:03:54;17.63;;;10.60;;
2944;SDS011;1482;51.398;7.128;2024-01-06T12:06:20;18.03;;;10.87;;
2944;SDS011;1482;51.398;7.128;2024-01-06T12:08:48;18.30;;;10.20;;
2944;SDS011;1482;51.398;7.128;2024-01-06T12:11:16;17.97;;;12.03;;
2944;SDS011;1482;51.398;7.128;2024-01-06T12:13:43;17.57;;;11.33;;
2944;SDS011;1482;51.398;7.128;2024-01-06T12:16:09;18.43;;;12.20;;
2944;SDS011;1482;51.398;7.128;2024-01-06T12:18:35;22.67;;;12.87;;
2944;SDS011;1482;51.398;7.128;2024-01-06T12:21:01;26.10;;;14.53;;
2944;SDS011;1482;51.398;7.128;2024-01-06T12:23:27;24.53;;;14.37;;
2944;SDS011;1482;51.398;7.128;2024-01-06T12:25:53;26.23;;;13.83;;
2944;SDS011;1482;51.398;7.128;2024-01-06T12:28:19;25.17;;;12.87;;
2944;SDS011;1482;51.398;7.128;2024-01-06T12:30:45;25.50;;;13.20;;
2944;SDS011;1482;51.398;7.128;2024-01-06T12:33:10;28.23;;;13.50;;
2944;SDS011;1482;51.398;7.128;2024-01-06T12:35:37;31.40;;;16.83;;
2944;SDS011;1482;51.398;7.128;2024-01-06T12:38:03;29.73;;;16.07;;
2944;SDS011;1482;51.398;7.128;2024-01-06T12:40:31;47.33;;;19.80;;
2944;SDS011;1482;51.398;7.128;2024-01-06T12:42:56;30.47;;;18.00;;
2944;SDS011;1482;51.398;7.128;2024-01-06T12:45:22;29.87;;;16.90;;
2944;SDS011;1482;51.398;7.128;2024-01-06T12:47:47;47.50;;;19.70;;
2944;SDS011;1482;51.398;7.128;2024-01-06T12:50:13;30.87;;;18.00;;
2944;SDS011;1482;51.398;7.128;2024-01-06T12:52:39;33.73;;;17.03;;
2944;SDS011;1482;51.398;7.128;2024-01-06T12:55:05;27.27;;;15.83;;
2944;SDS011;1482;51.398;7.128;2024-01-06T12:57:32;30.00;;;16.70;;
2944;SDS011;1482;51.398;7.128;2024-01-06T12:59:57;29.70;;;17.30;;
2944;SDS011;1482;51.398;7.128;2024-01-06T13:02:23;39.97;;;17.40;;
2944;SDS011;1482;51.398;7.128;2024-01-06T13:04:48;34.97;;;18.00;;
2944;SDS011;1482;51.398;7.128;2024-01-06T13:07:14;31.63;;;18.40;;
2944;SDS011;1482;51.398;7.128;2024-01-06T13:09:39;37.73;;;19.53;;
2944;SDS011;1482;51.398;7.128;2024-01-06T13:12:05;30.83;;;17.13;;
2944;SDS011;1482;51.398;7.128;2024-01-06T13:14:31;32.33;;;16.33;;
2944;SDS011;1482;51.398;7.128;2024-01-06T13:16:57;30.63;;;17.57;;
2944;SDS011;1482;51.398;7.128;2024-01-06T13:19:23;31.77;;;16.20;;
2944;SDS011;1482;51.398;7.128;2024-01-06T13:21:49;30.63;;;15.07;;
2944;SDS011;1482;51.398;7.128;2024-01-06T13:24:14;26.30;;;13.23;;
2944;SDS011;1482;51.398;7.128;2024-01-06T13:26:40;21.80;;;14.87;;
2944;SDS011;1482;51.398;7.128;2024-01-06T13:29:06;24.20;;;15.00;;
2944;SDS011;1482;51.398;7.128;2024-01-06T13:31:31;32.07;;;13.97;;
2944;SDS011;1482;51.398;7.128;2024-01-06T13:33:57;30.23;;;16.67;;
2944;SDS011;1482;51.398;7.128;2024-01-06T13:36:23;34.70;;;14.50;;
2944;SDS011;1482;51.398;7.128;2024-01-06T13:38:49;27.73;;;14.80;;
2944;SDS011;1482;51.398;7.128;2024-01-06T13:41:15;25.13;;;13.83;;
2944;SDS011;1482;51.398;7.128;2024-01-06T13:43:41;23.87;;;12.73;;
2944;SDS011;1482;51.398;7.128;2024-01-06T13:46:06;19.90;;;12.50;;
2944;SDS011;1482;51.398;7.128;2024-01-06T13:48:32;22.87;;;11.37;;
2944;SDS011;1482;51.398;7.128;2024-01-06T13:50:58;21.70;;;11.60;;
2944;SDS011;1482;51.398;7.128;2024-01-06T13:53:24;21.87;;;12.90;;
2944;SDS011;1482;51.398;7.128;2024-01-06T13:55:50;22.07;;;11.00;;
2944;SDS011;1482;51.398;7.128;2024-01-06T13:58:15;13.87;;;9.00;;
2944;SDS011;1482;51.398;7.128;2024-01-06T14:00:42;18.77;;;11.70;;
2944;SDS011;1482;51.398;7.128;2024-01-06T14:03:09;23.33;;;11.57;;
2944;SDS011;1482;51.398;7.128;2024-01-06T14:05:34;20.37;;;11.20;;
2944;SDS011;1482;51.398;7.128;2024-01-06T14:08:01;23.80;;;13.90;;
2944;SDS011;1482;51.398;7.128;2024-01-06T14:10:26;19.50;;;11.10;;
2944;SDS011;1482;51.398;7.128;2024-01-06T14:12:53;22.80;;;12.70;;
2944;SDS011;1482;51.398;7.128;2024-01-06T14:15:19;18.67;;;11.10;;
2944;SDS011;1482;51.398;7.128;2024-01-06T14:17:44;20.00;;;12.57;;
2944;SDS011;1482;51.398;7.128;2024-01-06T14:20:14;22.30;;;12.77;;
2944;SDS011;1482;51.398;7.128;2024-01-06T14:22:42;20.00;;;11.13;;
2944;SDS011;1482;51.398;7.128;2024-01-06T14:25:08;25.10;;;12.07;;
2944;SDS011;1482;51.398;7.128;2024-01-06T14:27:34;18.80;;;11.27;;
2944;SDS011;1482;51.398;7.128;2024-01-06T14:30:00;20.10;;;11.30;;
2944;SDS011;1482;51.398;7.128;2024-01-06T14:32:26;21.60;;;11.80;;
2944;SDS011;1482;51.398;7.128;2024-01-06T14:34:51;22.87;;;13.30;;
2944;SDS011;1482;51.398;7.128;2024-01-06T14:37:17;20.93;;;12.67;;
2944;SDS011;1482;51.398;7.128;2024-01-06T14:39:42;21.23;;;10.70;;
2944;SDS011;1482;51.398;7.128;2024-01-06T14:42:08;22.23;;;13.50;;
2944;SDS011;1482;51.398;7.128;2024-01-06T14:44:34;23.70;;;13.00;;